Time;durP1;ratioP1;P1;durP2;ratioP2;P2;SDS_P1;SDS_P2;PMS_P1;PMS_P2;Temp;Humidity;BMP_temperature;BMP_pressure;BME280_temperature;BME280_humidity;BME280_pressure;Samples;Min_cycle;Max_cycle;Signal;HPM_P1;HPM_P2
2021/11/24 07:02:05;;;;;;;22.00;12.18;;;6.30;99.90;;;;;;6138152;23;20211;-79
2021/11/24 07:04:34;;;;;;;27.55;13.30;;;6.30;99.90;;;;;;6181854;23;20023;-79
2021/11/24 07:07:01;;;;;;;23.75;12.52;;;6.30;99.90;;;;;;6181878;23;20402;-79
2021/11/24 07:09:28;;;;;;;25.83;13.80;;;6.30;99.90;;;;;;6180387;23;20572;-79
2021/11/24 07:11:55;;;;;;;29.10;14.57;;;6.30;99.90;;;;;;6181302;23;20029;-78
2021/11/24 07:14:22;;;;;;;26.92;14.20;;;6.30;99.90;;;;;;6154762;23;20028;-79
2021/11/24 07:16:49;;;;;;;30.23;15.65;;;6.30;99.90;;;;;;6181792;23;20071;-79
2021/11/24 07:19:16;;;;;;;27.08;15.75;;;6.30;99.90;;;;;;6180542;23;20020;-79
2021/11/24 07:21:48;;;;;;;35.17;17.45;;;6.40;99.90;;;;;;6154773;23;20021;-79
2021/11/24 07:24:16;;;;;;;36.83;16.55;;;6.40;99.90;;;;;;6181064;23;20029;-80
2021/11/24 07:26:44;;;;;;;35.17;16.48;;;6.30;99.90;;;;;;6180495;23;20020;-79
2021/11/24 07:29:12;;;;;;;31.98;17.38;;;6.40;99.90;;;;;;6180847;23;20024;-79
2021/11/24 07:31:39;;;;;;;35.85;15.30;;;6.30;99.90;;;;;;6180482;23;20021;-79
2021/11/24 07:34:06;;;;;;;34.00;16.35;;;6.30;99.90;;;;;;6153253;23;20017;-77
2021/11/24 07:36:33;;;;;;;39.20;16.00;;;6.30;99.90;;;;;;6179972;23;20080;-79
2021/11/24 07:39:00;;;;;;;33.40;15.55;;;6.30;99.90;;;;;;6180260;23;20044;-78
2021/11/24 07:41:27;;;;;;;33.15;15.98;;;6.30;99.90;;;;;;6179520;23;20025;-79
2021/11/24 07:43:54;;;;;;;33.22;15.82;;;6.30;99.90;;;;;;6179875;23;20471;-79
2021/11/24 07:46:21;;;;;;;32.92;15.48;;;6.30;99.90;;;;;;6179257;23;20368;-79
2021/11/24 07:48:48;;;;;;;29.58;14.93;;;6.30;99.90;;;;;;6179800;23;20021;-79
2021/11/24 07:51:18;;;;;;;34.85;15.45;;;6.30;99.90;;;;;;6178572;23;20023;-79
2021/11/24 07:53:46;;;;;;;30.73;15.20;;;6.30;99.90;;;;;;6179849;23;20363;-78
2021/11/24 07:56:13;;;;;;;32.20;16.23;;;6.40;99.90;;;;;;6178685;23;20025;-79
2021/11/24 07:58:41;;;;;;;29.48;14.57;;;6.40;99.90;;;;;;6180343;23;20017;-78
2021/11/24 08:01:12;;;;;;;32.70;14.98;;;6.50;99.90;;;;;;6177902;23;20028;-79
2021/11/24 08:03:40;;;;;;;33.25;15.18;;;6.50;99.90;;;;;;6179677;23;20044;-79
2021/11/24 08:06:07;;;;;;;29.25;14.43;;;6.60;99.90;;;;;;6178900;23;20020;-78
2021/11/24 08:08:34;;;;;;;29.92;14.25;;;6.60;99.90;;;;;;6180192;23;20017;-78
2021/11/24 08:11:02;;;;;;;34.38;13.75;;;6.60;99.90;;;;;;6179576;23;20025;-79
2021/11/24 08:13:29;;;;;;;26.90;13.27;;;6.70;99.90;;;;;;6179260;23;20052;-79
2021/11/24 08:15:56;;;;;;;25.73;12.55;;;6.70;99.90;;;;;;6179689;23;20013;-79
2021/11/24 08:18:23;;;;;;;25.52;13.18;;;6.80;99.90;;;;;;6179414;23;20027;-80
2021/11/24 08:20:50;;;;;;;25.38;12.63;;;6.90;99.90;;;;;;6179454;23;20021;-78
2021/11/24 08:23:17;;;;;;;26.45;12.85;;;7.00;99.90;;;;;;6179057;23;20017;-79
2021/11/24 08:25:45;;;;;;;25.02;11.75;;;7.00;99.90;;;;;;6180120;23;20088;-79
2021/11/24 08:28:12;;;;;;;23.25;11.73;;;7.10;99.90;;;;;;6179077;23;20076;-79
2021/11/24 08:30:39;;;;;;;27.13;11.65;;;7.10;99.90;;;;;;6179476;23;20076;-78
2021/11/24 08:33:06;;;;;;;20.55;11.27;;;7.20;99.90;;;;;;6178821;23;20021;-79
2021/11/24 08:35:33;;;;;;;22.67;10.35;;;7.20;99.90;;;;;;6179201;23;20479;-78
2021/11/24 08:38:00;;;;;;;28.17;11.35;;;7.30;99.90;;;;;;6179556;23;20080;-79
2021/11/24 08:40:27;;;;;;;21.40;9.70;;;7.40;99.90;;;;;;6179373;23;20021;-79
2021/11/24 08:42:54;;;;;;;24.15;9.73;;;7.40;99.90;;;;;;6179442;23;20537;-79
2021/11/24 08:45:23;;;;;;;16.15;9.25;;;7.50;99.90;;;;;;6178323;23;20076;-79
2021/11/24 08:47:50;;;;;;;21.05;8.52;;;7.60;99.90;;;;;;6153663;23;20457;-78
2021/11/24 08:50:18;;;;;;;17.42;8.00;;;7.60;99.90;;;;;;6178683;23;20407;-79
2021/11/24 08:52:46;;;;;;;15.38;7.95;;;7.70;99.90;;;;;;6179464;23;20021;-79
2021/11/24 08:55:13;;;;;;;18.40;7.78;;;7.80;99.90;;;;;;6179320;23;20075;-78
2021/11/24 08:57:41;;;;;;;16.27;7.43;;;7.80;99.90;;;;;;6179928;23;20518;-79
2021/11/24 09:00:11;;;;;;;16.65;6.97;;;7.90;99.90;;;;;;6179471;23;20033;-78
2021/11/24 09:02:38;;;;;;;16.48;8.23;;;8.00;99.90;;;;;;6179981;23;20033;-78
2021/11/24 09:05:05;;;;;;;13.20;7.18;;;8.00;99.90;;;;;;6180197;23;20024;-79
2021/11/24 09:07:32;;;;;;;10.95;6.97;;;8.10;99.90;;;;;;6179360;23;20013;-78
2021/11/24 09:10:01;;;;;;;14.55;7.70;;;8.10;99.90;;;;;;6179852;23;20048;-78
2021/11/24 09:12:28;;;;;;;11.93;5.60;;;8.20;99.90;;;;;;6179205;23;20021;-79
2021/11/24 09:14:55;;;;;;;11.40;7.38;;;8.30;99.90;;;;;;6179998;23;20492;-78
2021/11/24 09:17:22;;;;;;;16.60;6.60;;;8.40;99.90;;;;;;6179510;23;20025;-79
2021/11/24 09:19:49;;;;;;;21.58;6.82;;;8.40;99.90;;;;;;6179969;23;20072;-78
2021/11/24 09:22:34;;;;;;;15.18;7.07;;;8.50;99.90;;;;;;6179772;23;20009;-79
2021/11/24 09:25:01;;;;;;;12.93;6.20;;;8.60;99.90;;;;;;6179906;23;20403;-79
2021/11/24 09:27:32;;;;;;;7.47;4.50;;;8.60;99.90;;;;;;6178882;23;20021;-79
2021/11/24 09:30:01;;;;;;;11.18;6.00;;;8.70;99.90;;;;;;6179842;23;20056;-78
2021/11/24 09:32:28;;;;;;;;;;;8.80;99.90;;;;;;6179486;23;20021;-79
2021/11/24 09:34:55;;;;;;;13.15;6.07;;;8.80;99.90;;;;;;6179903;23;20290;-79
2021/11/24 09:37:22;;;;;;;13.88;6.15;;;8.90;99.90;;;;;;6179154;23;20029;-79
2021/11/24 09:39:50;;;;;;;14.30;6.45;;;8.90;99.90;;;;;;6179834;23;20085;-79
2021/11/24 09:42:20;;;;;;;12.68;5.95;;;9.00;99.90;;;;;;6179152;23;20076;-79
2021/11/24 09:44:48;;;;;;;10.77;5.25;;;9.10;99.90;;;;;;6180063;23;20020;-78
2021/11/24 09:47:16;;;;;;;16.08;5.80;;;9.20;99.90;;;;;;6154515;23;20025;-79
2021/11/24 09:49:46;;;;;;;9.43;5.70;;;9.20;99.90;;;;;;6181431;23;20025;-79
2021/11/24 09:52:20;;;;;;;14.32;5.47;;;9.30;99.90;;;;;;6180813;23;20072;-78
2021/11/24 09:54:51;;;;;;;10.23;5.15;;;9.40;99.90;;;;;;6181354;23;20039;-78
2021/11/24 09:57:21;;;;;;;14.90;5.38;;;9.40;99.90;;;;;;6180611;23;20024;-79
2021/11/24 09:59:48;;;;;;;10.68;4.85;;;9.50;99.90;;;;;;6181668;23;20475;-78
2021/11/24 10:02:16;;;;;;;11.27;4.95;;;9.50;99.90;;;;;;6180095;23;20021;-79
2021/11/24 10:04:45;;;;;;;11.32;5.35;;;9.50;99.90;;;;;;6181248;23;20025;-78
2021/11/24 10:07:14;;;;;;;9.60;4.95;;;9.60;99.90;;;;;;6180964;23;20083;-79
2021/11/24 10:09:42;;;;;;;13.45;5.00;;;9.70;99.90;;;;;;6181386;23;20013;-78
2021/11/24 10:12:10;;;;;;;8.55;5.05;;;9.70;99.90;;;;;;6180565;23;20021;-79
2021/11/24 10:14:39;;;;;;;11.75;5.47;;;9.80;99.90;;;;;;6155523;23;20025;-79
2021/11/24 10:17:10;;;;;;;9.25;5.38;;;9.80;99.90;;;;;;6180246;23;20021;-78
2021/11/24 10:20:01;;;;;;;12.75;5.72;;;9.90;99.90;;;;;;6181430;23;20021;-78
2021/11/24 10:22:28;;;;;;;17.33;6.07;;;9.90;99.90;;;;;;6180610;23;20360;-79
2021/11/24 10:25:23;;;;;;;9.32;4.70;;;10.00;99.90;;;;;;6180549;23;20021;-78
2021/11/24 10:27:50;;;;;;;9.80;5.20;;;10.00;99.90;;;;;;6177774;23;20084;-78
2021/11/24 10:30:26;;;;;;;11.40;5.60;;;10.00;99.90;;;;;;6180787;23;20036;-79
2021/11/24 10:32:54;;;;;;;9.57;5.00;;;10.00;99.90;;;;;;6180967;23;20021;-78
2021/11/24 10:35:28;;;;;;;9.95;5.82;;;10.10;99.90;;;;;;6179974;23;20076;-79
2021/11/24 10:38:15;;;;;;;11.15;5.35;;;10.10;99.90;;;;;;6181102;23;20116;-79
2021/11/24 10:40:44;;;;;;;8.90;4.97;;;10.10;99.90;;;;;;6180715;23;20159;-78
2021/11/24 10:43:16;;;;;;;10.00;4.88;;;10.10;99.90;;;;;;6179994;23;20021;-79
2021/11/24 10:45:54;;;;;;;10.27;4.78;;;10.20;99.90;;;;;;6180429;23;20076;-78
2021/11/24 10:48:28;;;;;;;13.45;5.53;;;10.20;99.90;;;;;;6180039;23;20104;-78
2021/11/24 10:50:56;;;;;;;8.40;6.07;;;10.20;99.90;;;;;;6181000;23;20415;-78
2021/11/24 10:53:25;;;;;;;13.25;5.70;;;10.30;99.90;;;;;;6179915;23;20087;-78
2021/11/24 10:55:53;;;;;;;7.82;4.90;;;10.20;99.90;;;;;;6180952;23;20487;-77
2021/11/24 10:58:26;;;;;;;10.90;5.13;;;10.30;99.90;;;;;;6179737;23;20029;-78
2021/11/24 11:00:56;;;;;;;11.73;5.75;;;10.40;99.90;;;;;;6179957;23;20526;-79
2021/11/24 11:03:44;;;;;;;8.27;5.28;;;10.40;99.90;;;;;;6180542;23;20420;-79
2021/11/24 11:06:29;;;;;;;6.88;4.75;;;10.50;99.90;;;;;;6179815;23;20044;-78
2021/11/24 11:08:57;;;;;;;7.72;5.03;;;10.50;99.90;;;;;;6180782;23;20021;-79
2021/11/24 11:11:30;;;;;;;5.20;3.92;;;10.50;99.90;;;;;;6179658;23;20017;-79
2021/11/24 11:14:22;;;;;;;7.72;5.00;;;10.60;99.90;;;;;;6180715;23;20088;-79
2021/11/24 11:16:52;;;;;;;8.65;5.10;;;10.60;99.90;;;;;;6179793;23;20009;-79
2021/11/24 11:19:49;;;;;;;9.15;5.88;;;10.70;99.90;;;;;;6179968;23;20013;-78
2021/11/24 11:22:19;;;;;;;9.90;6.10;;;10.70;99.90;;;;;;6180423;23;20099;-79
2021/11/24 11:24:46;;;;;;;10.45;6.90;;;10.80;99.90;;;;;;6181029;23;20056;-79
2021/11/24 11:27:13;;;;;;;9.73;5.22;;;10.80;99.90;;;;;;6179600;23;20028;-79
2021/11/24 11:29:42;;;;;;;11.02;5.47;;;10.90;99.90;;;;;;6180159;23;20021;-79
2021/11/24 11:32:10;;;;;;;7.20;4.25;;;10.90;99.90;;;;;;6180049;23;20025;-80
2021/11/24 11:34:38;;;;;;;4.28;3.72;;;10.90;99.90;;;;;;6181102;23;20475;-79
2021/11/24 11:37:05;;;;;;;11.50;5.40;;;10.90;99.90;;;;;;6179540;23;20020;-78
2021/11/24 11:39:34;;;;;;;6.10;3.97;;;11.00;99.90;;;;;;6180460;23;20087;-78
2021/11/24 11:42:17;;;;;;;5.85;4.10;;;11.00;99.90;;;;;;6180649;23;20096;-78
2021/11/24 11:45:09;;;;;;;9.52;5.82;;;11.00;99.90;;;;;;6158170;23;20017;-77
2021/11/24 11:47:47;;;;;;;8.48;5.72;;;11.00;99.90;;;;;;6180589;23;20135;-78
2021/11/24 11:50:37;;;;;;;10.48;5.88;;;11.10;99.90;;;;;;6180095;23;20017;-77
2021/11/24 11:53:15;;;;;;;9.10;6.10;;;11.10;99.90;;;;;;6179733;23;20021;-77
2021/11/24 11:55:41;;;;;;;6.15;4.30;;;11.20;99.90;;;;;;6180945;23;20021;-77
2021/11/24 11:58:22;;;;;;;9.32;6.72;;;11.20;99.90;;;;;;6153414;23;20048;-77
2021/11/24 12:01:10;;;;;;;8.40;5.40;;;11.20;99.90;;;;;;6179868;23;20025;-78
2021/11/24 12:04:05;;;;;;;6.07;4.78;;;11.20;99.90;;;;;;6180230;23;20112;-77
2021/11/24 12:06:32;;;;;;;8.90;5.53;;;11.20;99.90;;;;;;6180086;23;20048;-80
2021/11/24 12:09:18;;;;;;;8.95;6.60;;;11.30;99.90;;;;;;6179498;23;20025;-78
2021/11/24 12:12:17;;;;;;;6.20;4.50;;;11.30;99.90;;;;;;6179855;23;20341;-78
2021/11/24 12:14:48;;;;;;;10.80;5.78;;;11.30;99.90;;;;;;6088622;23;20081;-78
2021/11/24 12:17:42;;;;;;;8.95;5.35;;;11.30;99.90;;;;;;6088502;23;20050;-78
2021/11/24 12:20:16;;;;;;;7.82;5.65;;;11.40;99.90;;;;;;6088550;23;20029;-78
2021/11/24 12:22:46;;;;;;;10.68;6.10;;;11.40;99.90;;;;;;6088723;23;20025;-78
2021/11/24 12:25:25;;;;;;;7.13;5.22;;;11.50;99.90;;;;;;6088316;23;20026;-80
2021/11/24 12:33:04;;;;;;;10.20;6.07;;;11.80;99.90;;;;;;6088831;23;20018;-80
2021/11/24 12:35:33;;;;;;;7.35;4.75;;;11.80;99.90;;;;;;6088243;23;20350;-79
2021/11/24 12:38:23;;;;;;;9.68;5.65;;;11.90;99.90;;;;;;6088406;23;20097;-79
2021/11/24 12:40:52;;;;;;;8.25;5.43;;;11.80;99.90;;;;;;6088580;23;20030;-79
2021/11/24 12:43:22;;;;;;;7.57;4.10;;;11.80;99.90;;;;;;6087562;23;20106;-79
2021/11/24 12:46:13;;;;;;;10.63;5.55;;;11.70;99.90;;;;;;6088951;23;20077;-79
2021/11/24 12:49:01;;;;;;;12.65;6.10;;;11.60;99.90;;;;;;6088978;23;20093;-79
2021/11/24 12:51:31;;;;;;;5.85;4.68;;;11.60;99.90;;;;;;6148203;23;20017;-79
2021/11/24 12:54:07;;;;;;;8.90;5.90;;;11.60;99.90;;;;;;6180111;23;20025;-79
2021/11/24 12:56:38;;;;;;;6.28;4.20;;;11.60;99.90;;;;;;6179698;23;20075;-79
2021/11/24 12:59:08;;;;;;;13.50;5.82;;;11.60;99.90;;;;;;6179560;23;20363;-77
2021/11/24 13:01:37;;;;;;;8.60;4.78;;;11.70;99.90;;;;;;6152996;23;20072;-78
2021/11/24 13:04:10;;;;;;;8.88;5.40;;;11.80;99.90;;;;;;6179039;23;20163;-77
2021/11/24 13:06:41;;;;;;;8.77;5.40;;;11.80;99.90;;;;;;6179830;23;20076;-76
2021/11/24 13:09:30;;;;;;;8.77;5.57;;;11.90;99.90;;;;;;6153974;23;20025;-77
2021/11/24 13:12:03;;;;;;;6.15;4.32;;;11.80;99.90;;;;;;6179462;23;20033;-78
2021/11/24 13:14:35;;;;;;;9.57;5.65;;;11.90;99.90;;;;;;6179352;23;20017;-77
2021/11/24 13:17:08;;;;;;;10.38;6.32;;;11.90;99.90;;;;;;6178952;23;20025;-78
2021/11/24 13:19:43;;;;;;;8.25;5.10;;;11.90;99.90;;;;;;6178999;23;20080;-78
2021/11/24 13:22:11;;;;;;;10.95;6.65;;;11.80;99.90;;;;;;6181202;23;20029;-76
2021/11/24 13:24:43;;;;;;;8.15;4.93;;;11.80;99.90;;;;;;6181561;23;20060;-77
2021/11/24 13:27:11;;;;;;;10.37;5.07;;;11.80;99.90;;;;;;6153530;23;20021;-78
2021/11/24 13:29:38;;;;;;;11.63;7.18;;;11.70;99.90;;;;;;6155887;23;20334;-78
2021/11/24 13:32:11;;;;;;;7.55;4.85;;;11.70;99.90;;;;;;6180787;23;20017;-79
2021/11/24 13:34:41;;;;;;;14.93;7.00;;;11.80;99.90;;;;;;6155519;23;20095;-78
2021/11/24 13:37:08;;;;;;;6.57;4.80;;;11.80;99.90;;;;;;6179868;23;20028;-80
2021/11/24 13:39:36;;;;;;;5.97;5.33;;;11.80;99.90;;;;;;6180952;23;20541;-79
2021/11/24 13:42:11;;;;;;;11.98;6.90;;;11.80;99.90;;;;;;6180780;23;20642;-79
2021/11/24 13:44:56;;;;;;;13.07;6.63;;;11.80;99.90;;;;;;6180727;23;20017;-79
2021/11/24 13:47:29;;;;;;;8.00;5.00;;;11.70;99.90;;;;;;6180442;23;20025;-79
2021/11/24 13:49:58;;;;;;;12.23;6.90;;;11.70;99.90;;;;;;6180920;23;20117;-79
2021/11/24 13:52:30;;;;;;;8.82;6.65;;;11.60;99.90;;;;;;6180441;23;20017;-77
2021/11/24 13:54:58;;;;;;;12.13;7.00;;;11.50;99.90;;;;;;6181407;23;20021;-79
2021/11/24 13:57:29;;;;;;;7.57;5.60;;;11.40;99.90;;;;;;6180527;23;20025;-78
2021/11/24 14:00:01;;;;;;;12.70;7.07;;;11.40;99.90;;;;;;6181179;23;20088;-79
2021/11/24 14:02:29;;;;;;;8.00;5.28;;;11.30;99.90;;;;;;6180247;23;20079;-78
2021/11/24 14:05:05;;;;;;;12.57;7.55;;;11.20;99.90;;;;;;6181277;23;20017;-79
2021/11/24 14:07:38;;;;;;;7.45;5.47;;;11.20;99.90;;;;;;6180348;23;20056;-78
2021/11/24 14:10:34;;;;;;;12.68;7.13;;;11.10;99.90;;;;;;6181283;23;20040;-79
2021/11/24 14:13:02;;;;;;;11.05;7.47;;;11.00;99.90;;;;;;6178158;23;20021;-78
2021/11/24 14:15:29;;;;;;;9.13;6.05;;;11.00;99.90;;;;;;6181222;23;20021;-78
2021/11/24 14:17:56;;;;;;;10.10;7.70;;;10.80;99.90;;;;;;6181164;23;20025;-79
2021/11/24 14:20:37;;;;;;;12.80;7.38;;;10.80;99.90;;;;;;6180621;23;20029;-78
2021/11/24 14:23:27;;;;;;;13.32;7.18;;;10.70;99.90;;;;;;6180120;23;20083;-77
2021/11/24 14:25:55;;;;;;;10.27;7.13;;;10.70;99.90;;;;;;6180550;23;20021;-78
2021/11/24 14:28:28;;;;;;;9.60;6.38;;;10.60;99.90;;;;;;6153225;23;20024;-80
2021/11/24 14:30:56;;;;;;;10.48;6.45;;;10.50;99.90;;;;;;6179301;23;20087;-80
2021/11/24 14:33:25;;;;;;;17.55;10.48;;;10.50;99.90;;;;;;6178806;23;20032;-79
2021/11/24 14:35:54;;;;;;;9.88;7.75;;;10.40;99.90;;;;;;6179748;23;20021;-79
2021/11/24 14:38:21;;;;;;;13.43;9.85;;;10.40;99.90;;;;;;6178857;23;20407;-78
2021/11/24 14:40:48;;;;;;;13.60;8.85;;;10.30;99.90;;;;;;6179086;23;20408;-79
2021/11/24 14:43:15;;;;;;;15.18;10.50;;;10.30;99.90;;;;;;6178913;23;20121;-79
2021/11/24 14:45:43;;;;;;;26.40;17.20;;;10.30;99.90;;;;;;6179834;23;20021;-78
2021/11/24 14:48:10;;;;;;;21.77;15.05;;;10.20;99.90;;;;;;6178756;23;20032;-78
2021/11/24 14:50:39;;;;;;;21.77;14.63;;;10.20;99.90;;;;;;6179870;23;20076;-79
2021/11/24 14:53:06;;;;;;;13.95;11.45;;;10.10;99.90;;;;;;6179862;23;20021;-79
2021/11/24 14:55:55;;;;;;;7.13;4.97;;;10.10;99.90;;;;;;6159244;23;20080;-78
2021/11/24 14:58:23;;;;;;;6.87;5.10;;;10.00;99.90;;;;;;6179968;23;20322;-78
2021/11/24 15:00:51;;;;;;;8.68;5.55;;;10.00;99.90;;;;;;6180528;23;20249;-78
2021/11/24 15:03:23;;;;;;;9.13;6.13;;;10.00;99.90;;;;;;6179118;23;20099;-76
2021/11/24 15:05:50;;;;;;;9.43;6.85;;;10.00;99.90;;;;;;6178411;23;20044;-77
2021/11/24 15:08:17;;;;;;;8.63;6.63;;;9.90;99.90;;;;;;6152044;23;20075;-78
2021/11/24 15:10:45;;;;;;;12.23;7.25;;;9.90;99.90;;;;;;6179679;23;20040;-78
2021/11/24 15:13:34;;;;;;;8.70;6.97;;;9.90;99.90;;;;;;6179797;23;20084;-78
2021/11/24 15:16:03;;;;;;;8.43;7.15;;;9.90;99.90;;;;;;6180195;23;20021;-78
2021/11/24 15:18:30;;;;;;;;;;;9.90;99.90;;;;;;6180875;23;20169;-78
2021/11/24 15:20:58;;;;;;;10.35;8.25;;;9.90;99.90;;;;;;6179648;23;19916;-77
2021/11/24 15:23:25;;;;;;;8.52;7.10;;;9.80;99.90;;;;;;6179166;23;20027;-78
2021/11/24 15:26:04;;;;;;;17.30;11.45;;;9.80;99.90;;;;;;6179798;23;20025;-79
2021/11/24 15:28:32;;;;;;;14.75;10.63;;;9.80;99.90;;;;;;6179866;23;20017;-80
2021/11/24 15:31:00;;;;;;;12.15;10.35;;;9.80;99.90;;;;;;6179590;23;20411;-80
2021/11/24 15:33:28;;;;;;;13.85;11.70;;;9.80;99.90;;;;;;6179377;23;20028;-79
2021/11/24 15:35:54;;;;;;;24.58;14.05;;;9.80;99.90;;;;;;6179814;23;20411;-81
2021/11/24 15:38:22;;;;;;;22.88;15.10;;;9.80;99.90;;;;;;6179904;23;20083;-80
2021/11/24 15:40:49;;;;;;;28.77;16.92;;;9.80;99.90;;;;;;6180018;23;20017;-80
2021/11/24 15:43:16;;;;;;;27.08;16.75;;;9.80;99.90;;;;;;6153038;23;20084;-80
2021/11/24 15:45:42;;;;;;;23.02;15.38;;;9.80;99.90;;;;;;6180157;23;20056;-80
2021/11/24 15:48:10;;;;;;;21.88;14.25;;;9.70;99.90;;;;;;6179186;23;20021;-80
2021/11/24 15:50:38;;;;;;;18.35;13.13;;;9.70;99.90;;;;;;6179651;23;20067;-80
2021/11/24 15:53:05;;;;;;;12.20;10.90;;;9.70;99.90;;;;;;6179470;23;20021;-80
2021/11/24 15:55:32;;;;;;;18.88;13.35;;;9.70;99.90;;;;;;6179418;23;20076;-80
2021/11/24 15:58:13;;;;;;;23.10;13.90;;;9.60;99.90;;;;;;6179350;23;20021;-81
2021/11/24 16:00:42;;;;;;;20.05;14.70;;;9.60;99.90;;;;;;6180427;23;20013;-80
2021/11/24 16:03:09;;;;;;;27.98;16.50;;;9.50;99.90;;;;;;6178931;23;20372;-79
2021/11/24 16:05:37;;;;;;;25.40;17.13;;;9.50;99.90;;;;;;6179415;23;20096;-81
2021/11/24 16:08:04;;;;;;;24.48;17.30;;;9.50;99.90;;;;;;6179848;23;20013;-80
2021/11/24 16:10:55;;;;;;;26.25;16.98;;;9.40;99.90;;;;;;6179868;23;20122;-80
2021/11/24 16:13:22;;;;;;;26.33;17.95;;;9.30;99.90;;;;;;6179273;23;20075;-81
2021/11/24 16:16:00;;;;;;;30.77;19.60;;;9.30;99.90;;;;;;6180143;23;20032;-79
2021/11/24 16:18:27;;;;;;;30.42;19.45;;;9.30;99.90;;;;;;6178893;23;20024;-80
2021/11/24 16:20:53;;;;;;;28.33;19.15;;;9.30;99.90;;;;;;6179515;23;20060;-81
2021/11/24 16:23:20;;;;;;;32.25;19.33;;;9.20;99.90;;;;;;6178411;23;20052;-79
2021/11/24 16:25:47;;;;;;;31.92;18.77;;;9.20;99.90;;;;;;6176676;23;20558;-80
2021/11/24 16:28:14;;;;;;;31.35;19.33;;;9.20;99.90;;;;;;6177178;23;20075;-80
2021/11/24 16:30:41;;;;;;;30.63;19.17;;;9.20;99.90;;;;;;6177487;23;20025;-81
2021/11/24 16:33:08;;;;;;;32.20;20.05;;;9.20;99.90;;;;;;6177851;23;20079;-81
2021/11/24 16:35:37;;;;;;;35.90;20.67;;;9.20;99.90;;;;;;6177432;23;20017;-80
2021/11/24 16:38:04;;;;;;;34.35;20.52;;;9.20;99.90;;;;;;6177407;23;20029;-79
2021/11/24 16:40:33;;;;;;;33.92;20.42;;;9.10;99.90;;;;;;6174323;23;20021;-81
2021/11/24 16:43:00;;;;;;;35.95;21.98;;;9.10;99.90;;;;;;6177616;23;20021;-80
2021/11/24 16:45:27;;;;;;;36.15;21.42;;;9.10;99.90;;;;;;6176317;23;20025;-81
2021/11/24 16:47:54;;;;;;;32.45;21.90;;;9.10;99.90;;;;;;6177291;23;20029;-80
2021/11/24 16:50:21;;;;;;;35.35;22.80;;;9.10;99.90;;;;;;6175134;23;20415;-81
2021/11/24 16:52:48;;;;;;;45.70;25.27;;;9.10;99.90;;;;;;6175309;23;20075;-80
2021/11/24 16:55:16;;;;;;;41.50;23.55;;;9.10;99.90;;;;;;6175615;23;20025;-80
2021/11/24 16:57:43;;;;;;;38.63;23.67;;;9.10;99.90;;;;;;6177403;23;20100;-80
2021/11/24 17:00:14;;;;;;;36.28;22.40;;;9.10;99.90;;;;;;6177089;23;20070;-80
2021/11/24 17:02:41;;;;;;;34.38;22.05;;;9.10;99.90;;;;;;6178948;23;20021;-80
2021/11/24 17:05:10;;;;;;;40.33;23.33;;;9.10;99.90;;;;;;6178556;23;20083;-80
2021/11/24 17:07:37;;;;;;;42.30;24.03;;;9.10;99.90;;;;;;6179643;23;20097;-80
2021/11/24 17:10:06;;;;;;;43.92;25.20;;;9.10;99.90;;;;;;6179627;23;20770;-80
2021/11/24 17:12:42;;;;;;;33.22;22.38;;;9.10;99.90;;;;;;6178511;23;20079;-80
2021/11/24 17:15:09;;;;;;;43.00;23.40;;;9.10;99.90;;;;;;6178806;23;20028;-80
2021/11/24 17:17:36;;;;;;;39.30;23.38;;;9.10;99.90;;;;;;6180118;23;20688;-80
2021/11/24 17:20:05;;;;;;;29.63;19.52;;;9.10;99.90;;;;;;6179688;23;20029;-80
2021/11/24 17:22:32;;;;;;;46.40;26.55;;;9.10;99.90;;;;;;6180144;23;20063;-80
2021/11/24 17:24:59;;;;;;;38.75;24.48;;;9.10;99.90;;;;;;6153994;23;20348;-80
2021/11/24 17:27:27;;;;;;;39.33;24.60;;;9.10;99.90;;;;;;6179047;23;20025;-80
2021/11/24 17:29:55;;;;;;;48.78;29.13;;;9.10;99.90;;;;;;6180090;23;20021;-80
2021/11/24 17:32:25;;;;;;;61.30;34.60;;;9.10;99.90;;;;;;6179594;23;20503;-80
2021/11/24 17:34:52;;;;;;;43.50;25.73;;;9.10;99.90;;;;;;6180381;23;20108;-79
2021/11/24 17:37:21;;;;;;;45.03;26.38;;;9.10;99.90;;;;;;6179360;23;20403;-80
2021/11/24 17:39:48;;;;;;;45.17;26.60;;;9.10;99.90;;;;;;6180129;23;20025;-80
2021/11/24 17:42:15;;;;;;;47.92;27.40;;;9.00;99.90;;;;;;6179533;23;20075;-79
2021/11/24 17:44:42;;;;;;;50.60;27.75;;;9.00;99.90;;;;;;6179990;23;20017;-79
2021/11/24 17:47:09;;;;;;;45.80;27.58;;;9.00;99.90;;;;;;6179492;23;20025;-81
2021/11/24 17:49:36;;;;;;;52.42;28.08;;;9.00;99.90;;;;;;6179618;23;20067;-80
2021/11/24 17:52:04;;;;;;;49.08;27.33;;;9.00;99.90;;;;;;6179741;23;20067;-80
2021/11/24 17:54:32;;;;;;;39.90;25.57;;;9.00;99.90;;;;;;6178682;23;20033;-80
2021/11/24 17:57:00;;;;;;;38.37;23.97;;;9.00;99.90;;;;;;6152502;23;20260;-79
2021/11/24 17:59:27;;;;;;;43.97;22.65;;;9.00;99.90;;;;;;6176001;23;20076;-80
2021/11/24 18:01:54;;;;;;;35.30;22.58;;;9.00;99.90;;;;;;6179299;23;20024;-82
2021/11/24 18:04:22;;;;;;;37.22;22.50;;;9.00;99.90;;;;;;6177583;23;20029;-80
2021/11/24 18:06:50;;;;;;;36.65;23.27;;;9.00;99.90;;;;;;6176218;23;20024;-79
2021/11/24 18:09:18;;;;;;;32.42;21.33;;;9.00;99.90;;;;;;6177371;23;20029;-80
2021/11/24 18:11:46;;;;;;;39.05;21.13;;;8.90;99.90;;;;;;6179471;23;20028;-80
2021/11/24 18:14:13;;;;;;;43.55;20.67;;;8.90;99.90;;;;;;6178204;23;20483;-80
2021/11/24 18:16:43;;;;;;;33.72;20.55;;;8.90;99.90;;;;;;6179951;23;20057;-80
2021/11/24 18:19:10;;;;;;;34.78;21.00;;;8.90;99.90;;;;;;6178648;23;20029;-80
2021/11/24 18:21:38;;;;;;;28.90;19.77;;;8.90;99.90;;;;;;6180272;23;20029;-80
2021/11/24 18:24:05;;;;;;;20.15;16.05;;;8.90;99.90;;;;;;6179183;23;20067;-79
2021/11/24 18:26:33;;;;;;;34.45;19.55;;;8.90;99.90;;;;;;6180947;23;20017;-80
2021/11/24 18:29:00;;;;;;;34.35;20.42;;;8.90;99.90;;;;;;6179544;23;20021;-80
2021/11/24 18:31:30;;;;;;;33.40;20.45;;;8.90;99.90;;;;;;6179043;23;20072;-79
2021/11/24 18:34:00;;;;;;;36.63;20.25;;;8.90;99.90;;;;;;6179860;23;20017;-79
2021/11/24 18:36:28;;;;;;;20.02;14.85;;;8.90;99.90;;;;;;6178822;23;20021;-81
2021/11/24 18:38:56;;;;;;;30.23;18.77;;;8.90;99.90;;;;;;6178815;23;20021;-79
2021/11/24 18:41:23;;;;;;;28.67;17.73;;;8.90;99.90;;;;;;6153210;23;20095;-80
2021/11/24 18:43:50;;;;;;;31.33;18.70;;;8.90;99.90;;;;;;6179987;23;20096;-80
2021/11/24 18:46:18;;;;;;;28.00;18.48;;;8.90;99.90;;;;;;6179169;23;20021;-79
2021/11/24 18:48:46;;;;;;;29.90;17.83;;;8.90;99.90;;;;;;6179721;23;20025;-79
2021/11/24 18:51:15;;;;;;;25.00;16.30;;;8.90;99.90;;;;;;6178047;23;20021;-79
2021/11/24 18:53:43;;;;;;;29.95;18.58;;;8.90;99.90;;;;;;6179672;23;20580;-79
2021/11/24 18:56:25;;;;;;;29.67;18.00;;;8.90;99.90;;;;;;6177710;23;20029;-80
2021/11/24 18:58:53;;;;;;;26.27;18.25;;;8.90;99.90;;;;;;6176724;23;20450;-78
2021/11/24 19:01:20;;;;;;;26.30;18.65;;;8.90;99.90;;;;;;6145122;23;20025;-78
2021/11/24 19:03:48;;;;;;;28.33;19.15;;;8.90;99.90;;;;;;6173933;23;20021;-78
2021/11/24 19:06:15;;;;;;;28.83;17.23;;;8.90;99.90;;;;;;6165615;23;20887;-79
2021/11/24 19:08:44;;;;;;;28.90;16.50;;;8.80;99.90;;;;;;6146405;23;20032;-79
2021/11/24 19:11:11;;;;;;;30.50;16.38;;;8.80;99.90;;;;;;6170801;23;20530;-80
2021/11/24 19:13:38;;;;;;;29.88;18.25;;;8.80;99.90;;;;;;6170712;23;20043;-81
2021/11/24 19:16:06;;;;;;;26.70;17.33;;;8.80;99.90;;;;;;6171721;23;20259;-80
2021/11/24 19:18:33;;;;;;;31.90;20.15;;;8.70;99.90;;;;;;6175127;23;20021;-80
2021/11/24 19:21:00;;;;;;;27.60;17.83;;;8.70;99.90;;;;;;6174742;23;20565;-79
2021/11/24 19:23:27;;;;;;;29.45;17.52;;;8.70;99.90;;;;;;6173508;23;20021;-79
2021/11/24 19:25:55;;;;;;;30.15;19.40;;;8.70;99.90;;;;;;6147810;23;20029;-79
2021/11/24 19:28:22;;;;;;;26.43;17.80;;;8.70;99.90;;;;;;6147744;23;20025;-79
2021/11/24 19:30:50;;;;;;;23.33;15.68;;;8.60;99.90;;;;;;6171394;23;20557;-80
2021/11/24 19:33:19;;;;;;;26.58;16.58;;;8.60;99.90;;;;;;6173309;23;20023;-79
2021/11/24 19:35:46;;;;;;;27.02;17.65;;;8.60;99.90;;;;;;6173855;23;20020;-80
2021/11/24 19:38:13;;;;;;;29.70;17.92;;;8.60;99.90;;;;;;6174838;23;20017;-81
2021/11/24 19:40:40;;;;;;;29.48;17.48;;;8.60;99.90;;;;;;6174506;23;20017;-81
2021/11/24 19:43:26;;;;;;;32.35;17.98;;;8.60;99.90;;;;;;6160852;23;20021;-80
2021/11/24 19:45:56;;;;;;;28.50;17.67;;;8.50;99.90;;;;;;6174545;23;20021;-81
2021/11/24 19:48:28;;;;;;;30.73;17.15;;;8.50;99.90;;;;;;6148156;23;20021;-80
2021/11/24 19:50:58;;;;;;;29.20;16.98;;;8.40;99.90;;;;;;6175170;23;20112;-81
2021/11/24 19:53:25;;;;;;;18.45;13.93;;;8.40;99.90;;;;;;6160371;23;20019;-82
2021/11/24 19:55:56;;;;;;;24.48;17.00;;;8.30;99.90;;;;;;6174497;23;20052;-81
2021/11/24 19:58:25;;;;;;;28.83;17.67;;;8.30;99.90;;;;;;6173253;23;20036;-82
2021/11/24 20:00:52;;;;;;;;;;;8.20;99.90;;;;;;6135904;23;20044;-82
2021/11/24 20:03:20;;;;;;;17.05;13.57;;;8.20;99.90;;;;;;6146641;23;19920;-82